createdAt,value
2019-02-09T00:00:45.031Z,77.08
2019-02-09T00:03:13.609Z,77.28
2019-02-09T00:05:42.241Z,77.31
2019-02-09T00:08:11.663Z,77.61
2019-02-09T00:10:40.496Z,77.66
2019-02-09T00:13:09.053Z,77.82
2019-02-09T00:15:37.688Z,77.68
2019-02-09T00:18:07.259Z,77.67
2019-02-09T00:20:35.875Z,78.00
2019-02-09T00:23:04.997Z,77.73
2019-02-09T00:25:33.759Z,77.65
2019-02-09T00:28:02.372Z,77.42
2019-02-09T00:30:30.991Z,77.77
2019-02-09T00:32:59.663Z,77.93
2019-02-09T00:35:28.301Z,77.58
2019-02-09T00:37:56.857Z,76.83
2019-02-09T00:40:29.946Z,76.99
2019-02-09T00:42:58.562Z,76.83
2019-02-09T00:45:27.885Z,77.14
2019-02-09T00:47:56.681Z,76.22
2019-02-09T00:50:25.614Z,75.91
2019-02-09T00:52:54.343Z,76.17
2019-02-09T00:55:27.692Z,76.89
2019-02-09T00:57:56.516Z,76.14
2019-02-09T01:00:32.848Z,75.69
2019-02-09T01:03:01.634Z,75.66
2019-02-09T01:05:41.463Z,75.76
2019-02-09T01:08:10.214Z,75.88
2019-02-09T01:10:38.836Z,75.82
2019-02-09T01:13:07.606Z,75.41
2019-02-09T01:15:36.636Z,74.84
2019-02-09T01:18:05.830Z,74.66
2019-02-09T01:20:34.558Z,74.68
2019-02-09T01:23:03.287Z,74.83
2019-02-09T01:25:31.900Z,74.79
2019-02-09T01:28:00.708Z,74.62
2019-02-09T01:30:30.131Z,74.62
2019-02-09T01:32:58.953Z,74.84
2019-02-09T01:35:27.610Z,74.78
2019-02-09T01:37:56.334Z,74.66
2019-02-09T01:40:27.196Z,75.00
2019-02-09T01:42:56.221Z,74.61
2019-02-09T01:45:29.850Z,74.49
2019-02-09T01:47:58.618Z,74.19
2019-02-09T01:50:32.007Z,74.59
2019-02-09T01:53:01.033Z,74.92
2019-02-09T01:55:29.895Z,75.51
2019-02-09T01:57:59.323Z,75.87
2019-02-09T02:00:30.360Z,76.75
2019-02-09T02:02:59.445Z,77.04
2019-02-09T02:05:28.443Z,77.05
2019-02-09T02:07:56.928Z,77.35
2019-02-09T02:10:35.904Z,77.58
2019-02-09T02:13:06.638Z,77.39
2019-02-09T02:15:35.460Z,77.34
2019-02-09T02:18:04.905Z,77.64
2019-02-09T02:20:33.962Z,77.68
2019-02-09T02:23:02.515Z,77.89
2019-02-09T02:25:31.284Z,78.04
2019-02-09T02:27:59.905Z,78.31
2019-02-09T02:30:36.860Z,78.35
2019-02-09T02:33:06.583Z,78.22
2019-02-09T02:35:35.514Z,78.17
2019-02-09T02:38:04.373Z,78.31
2019-02-09T02:40:32.989Z,78.09
2019-02-09T02:43:01.606Z,78.01
2019-02-09T02:45:30.517Z,78.21
2019-02-09T02:47:59.233Z,78.41
2019-02-09T02:50:27.963Z,78.66
2019-02-09T02:52:56.744Z,78.73
2019-02-09T02:55:27.717Z,79.29
2019-02-09T02:57:56.359Z,79.51
2019-02-09T03:00:32.454Z,79.53
2019-02-09T03:02:57.387Z,79.84
2019-02-09T03:05:26.288Z,80.23
2019-02-09T03:07:55.795Z,80.52
2019-02-09T03:10:24.523Z,80.75
2019-02-09T03:12:53.487Z,81.05
2019-02-09T03:15:27.431Z,81.12
2019-02-09T03:17:56.243Z,81.13
2019-02-09T03:20:24.894Z,81.39
2019-02-09T03:22:53.527Z,81.62
2019-02-09T03:25:25.117Z,81.62
2019-02-09T03:27:53.779Z,81.77
2019-02-09T03:30:24.630Z,82.11
2019-02-09T03:32:53.282Z,82.37
2019-02-09T03:35:22.401Z,82.70
2019-02-09T03:37:51.023Z,82.90
2019-02-09T03:40:29.145Z,82.98
2019-02-09T03:42:57.899Z,83.29
2019-02-09T03:45:33.634Z,83.15
2019-02-09T03:48:02.768Z,83.54
2019-02-09T03:50:32.707Z,83.66
2019-02-09T03:53:01.800Z,83.66
2019-02-09T03:55:30.524Z,83.78
2019-02-09T03:57:59.166Z,83.92
2019-02-09T04:00:32.914Z,84.04
2019-02-09T04:03:03.392Z,84.03
2019-02-09T04:05:32.027Z,83.97
2019-02-09T04:08:00.678Z,83.78
2019-02-09T04:10:29.436Z,84.04
2019-02-09T04:12:58.047Z,83.84
2019-02-09T04:15:27.716Z,83.10
2019-02-09T04:17:56.637Z,83.33
2019-02-09T04:20:26.250Z,83.04
2019-02-09T04:22:55.314Z,83.17
2019-02-09T04:25:24.336Z,83.04
2019-02-09T04:27:53.158Z,83.29
2019-02-09T04:30:24.208Z,83.20
2019-02-09T04:32:52.860Z,82.83
2019-02-09T04:35:21.572Z,82.83
2019-02-09T04:37:50.453Z,82.95
2019-02-09T04:40:21.562Z,82.71
2019-02-09T04:42:50.190Z,82.75
2019-02-09T04:45:19.353Z,82.68
2019-02-09T04:47:48.014Z,82.43
2019-02-09T04:50:17.379Z,82.26
2019-02-09T04:52:46.050Z,82.41
2019-02-09T04:55:19.713Z,81.94
2019-02-09T04:57:48.344Z,81.54
2019-02-09T05:00:27.771Z,81.56
2019-02-09T05:02:56.859Z,81.56
2019-02-09T05:05:26.421Z,81.36
2019-02-09T05:07:55.513Z,81.17
2019-02-09T05:10:25.136Z,81.01
2019-02-09T05:12:53.785Z,80.47
2019-02-09T05:15:22.856Z,80.24
2019-02-09T05:17:51.493Z,80.30
2019-02-09T05:20:25.376Z,80.64
2019-02-09T05:22:54.632Z,80.58
2019-02-09T05:25:23.555Z,80.30
2019-02-09T05:27:52.390Z,80.53
2019-02-09T05:30:28.322Z,80.38
2019-02-09T05:32:57.259Z,80.25
2019-02-09T05:35:26.380Z,80.22
2019-02-09T05:37:55.043Z,79.77
2019-02-09T05:40:25.273Z,79.41
2019-02-09T05:42:54.000Z,78.77
2019-02-09T05:45:27.268Z,79.31
2019-02-09T05:47:55.894Z,78.94
2019-02-09T05:50:24.824Z,78.48
2019-02-09T05:52:53.647Z,78.52
2019-02-09T05:55:22.281Z,78.57
2019-02-09T05:57:50.906Z,78.58
2019-02-09T06:00:35.167Z,78.16
2019-02-09T06:03:03.896Z,78.06
2019-02-09T06:05:32.603Z,77.83
2019-02-09T06:08:01.228Z,77.46
2019-02-09T06:10:29.858Z,77.39
2019-02-09T06:12:58.508Z,77.18
2019-02-09T06:15:28.707Z,77.10
2019-02-09T06:17:57.342Z,76.31
2019-02-09T06:20:30.694Z,76.08
2019-02-09T06:22:59.718Z,75.71
2019-02-09T06:25:28.460Z,75.52
2019-02-09T06:27:57.084Z,75.35
2019-02-09T06:30:33.051Z,75.07
2019-02-09T06:33:01.923Z,74.39
2019-02-09T06:35:30.836Z,73.19
2019-02-09T06:37:59.660Z,72.22
2019-02-09T06:40:28.555Z,72.83
2019-02-09T06:42:57.274Z,73.04
2019-02-09T06:45:27.000Z,73.19
2019-02-09T06:48:15.100Z,71.63
2019-02-09T06:50:43.698Z,71.08
2019-02-09T06:53:12.324Z,70.29
2019-02-09T06:55:40.873Z,69.68
2019-02-09T06:58:09.490Z,69.19
2019-02-09T07:00:37.981Z,69.16
2019-02-09T07:03:06.627Z,68.81
2019-02-09T07:05:35.258Z,67.78
2019-02-09T07:08:04.407Z,68.34
2019-02-09T07:10:35.905Z,68.86
2019-02-09T07:13:04.953Z,68.32
2019-02-09T07:15:35.941Z,68.08
2019-02-09T07:18:05.790Z,67.44
2019-02-09T07:20:34.370Z,66.02
2019-02-09T07:23:02.992Z,65.98
2019-02-09T07:25:31.656Z,66.16
2019-02-09T07:28:00.364Z,65.21
2019-02-09T07:30:30.900Z,65.14
2019-02-09T07:33:00.337Z,62.57
2019-02-09T07:35:28.956Z,63.54
2019-02-09T07:37:57.583Z,63.06
2019-02-09T07:40:27.146Z,62.74
2019-02-09T07:42:56.074Z,62.49
2019-02-09T07:45:31.215Z,61.70
2019-02-09T07:47:59.865Z,61.47
2019-02-09T07:50:28.794Z,59.86
2019-02-09T07:52:57.714Z,59.60
2019-02-09T07:55:27.282Z,58.99
2019-02-09T07:57:55.922Z,58.18
2019-02-09T08:00:26.981Z,57.77
2019-02-09T08:02:55.950Z,57.18
2019-02-09T08:05:26.486Z,57.03
2019-02-09T08:07:55.216Z,56.85
2019-02-09T08:10:32.665Z,57.99
2019-02-09T08:13:02.684Z,58.12
2019-02-09T08:15:32.514Z,56.63
2019-02-09T08:18:01.569Z,56.77
2019-02-09T08:20:31.398Z,55.33
2019-02-09T08:23:01.909Z,56.52
2019-02-09T08:25:33.745Z,54.97
2019-02-09T08:28:02.568Z,54.54
2019-02-09T08:30:42.407Z,54.86
2019-02-09T08:33:11.128Z,54.59
2019-02-09T08:35:40.376Z,55.77
2019-02-09T08:38:09.893Z,56.51
2019-02-09T08:40:38.621Z,57.58
2019-02-09T08:43:07.258Z,56.91
2019-02-09T08:45:35.911Z,57.54
2019-02-09T08:48:05.130Z,58.53
2019-02-09T08:50:35.962Z,57.47
2019-02-09T08:53:04.630Z,58.23
2019-02-09T08:55:33.251Z,58.32
2019-02-09T08:58:01.987Z,57.45
2019-02-09T09:00:33.100Z,57.39
2019-02-09T09:03:01.660Z,57.29
2019-02-09T09:05:30.389Z,56.68
2019-02-09T09:07:59.249Z,56.57
2019-02-09T09:10:31.773Z,55.25
2019-02-09T09:13:01.101Z,55.20
2019-02-09T09:15:44.224Z,55.69
2019-02-09T09:18:12.858Z,55.83
2019-02-09T09:20:49.969Z,55.73
2019-02-09T09:23:26.044Z,56.24
2019-02-09T09:25:54.948Z,57.30
2019-02-09T09:28:23.697Z,57.23
2019-02-09T09:30:52.182Z,57.20
2019-02-09T09:33:21.004Z,57.39
2019-02-09T09:35:49.639Z,57.52
2019-02-09T09:38:18.267Z,56.64
2019-02-09T09:40:47.150Z,56.35
2019-02-09T09:43:15.780Z,56.07
2019-02-09T09:45:45.112Z,56.37
2019-02-09T09:48:19.592Z,57.07
2019-02-09T09:50:48.219Z,56.57
2019-02-09T09:53:16.853Z,56.80
2019-02-09T09:55:45.452Z,56.45
2019-02-09T09:58:14.085Z,55.60
2019-02-09T10:00:42.757Z,56.75
2019-02-09T10:03:11.413Z,55.14
2019-02-09T10:05:40.053Z,53.39
2019-02-09T10:08:09.018Z,53.80
2019-02-09T10:10:37.705Z,53.36
2019-02-09T10:13:06.730Z,54.43
2019-02-09T10:15:35.563Z,54.36
2019-02-09T10:18:04.887Z,54.96
2019-02-09T10:20:33.562Z,55.96
2019-02-09T10:23:02.239Z,55.12
2019-02-09T10:25:30.908Z,55.43
2019-02-09T10:27:59.533Z,56.12
2019-02-09T10:30:32.521Z,56.40
2019-02-09T10:33:01.283Z,56.48
2019-02-09T10:35:30.004Z,56.72
2019-02-09T10:37:58.742Z,58.05
2019-02-09T10:40:32.843Z,57.73
2019-02-09T10:43:02.244Z,57.33
2019-02-09T10:45:31.865Z,58.15
2019-02-09T10:48:02.024Z,57.76
2019-02-09T10:50:42.127Z,59.34
2019-02-09T10:53:11.146Z,59.79
2019-02-09T10:55:39.967Z,61.03
2019-02-09T10:58:08.933Z,61.10
2019-02-09T11:00:46.359Z,60.33
2019-02-09T11:03:15.288Z,60.37
2019-02-09T11:05:44.009Z,59.77
2019-02-09T11:08:12.718Z,59.87
2019-02-09T11:10:41.440Z,59.81
2019-02-09T11:13:10.057Z,59.79
2019-02-09T11:15:38.784Z,60.55
2019-02-09T11:18:07.813Z,60.89
2019-02-09T11:20:36.444Z,60.06
2019-02-09T11:23:05.864Z,58.97
2019-02-09T11:25:34.496Z,58.84
2019-02-09T11:28:03.134Z,60.07
2019-02-09T11:30:32.094Z,60.50
2019-02-09T11:33:02.528Z,60.32
2019-02-09T11:35:31.000Z,60.64
2019-02-09T11:38:00.028Z,60.84
2019-02-09T11:40:29.870Z,60.67
2019-02-09T11:42:59.390Z,61.51
2019-02-09T11:45:33.381Z,60.51
2019-02-09T11:48:02.112Z,60.67
2019-02-09T11:50:30.740Z,60.17
2019-02-09T11:52:59.637Z,60.26
2019-02-09T11:55:28.272Z,60.03
2019-02-09T11:57:56.932Z,60.32
2019-02-09T12:00:36.847Z,59.81
2019-02-09T12:03:14.642Z,60.14
2019-02-09T12:05:36.425Z,59.49
2019-02-09T12:08:06.597Z,59.29
2019-02-09T12:10:35.221Z,59.46
2019-02-09T12:13:04.155Z,60.29
2019-02-09T12:15:35.197Z,60.68
2019-02-09T12:18:04.561Z,60.94
2019-02-09T12:20:33.181Z,59.78
2019-02-09T12:23:01.856Z,60.57
2019-02-09T12:25:32.857Z,59.81
2019-02-09T12:28:01.485Z,60.33
2019-02-09T12:30:32.668Z,61.14
2019-02-09T12:33:01.848Z,60.76
2019-02-09T12:35:30.565Z,60.56
2019-02-09T12:37:59.305Z,60.08
2019-02-09T12:40:34.636Z,58.89
2019-02-09T12:43:03.268Z,58.58
2019-02-09T12:45:34.740Z,59.02
2019-02-09T12:48:03.387Z,59.84
2019-02-09T12:50:32.409Z,59.88
2019-02-09T12:53:01.076Z,60.31
2019-02-09T12:55:29.910Z,60.65
2019-02-09T12:57:58.551Z,60.38
2019-02-09T13:00:29.302Z,60.87
2019-02-09T13:03:06.669Z,61.13
2019-02-09T13:05:35.331Z,61.26
2019-02-09T13:08:04.168Z,61.34
2019-02-09T13:10:32.730Z,61.07
2019-02-09T13:13:01.264Z,60.69
2019-02-09T13:15:31.637Z,60.31
2019-02-09T13:18:00.268Z,60.56
2019-02-09T13:20:31.159Z,60.44
2019-02-09T13:23:00.409Z,59.82
2019-02-09T13:25:29.046Z,59.20
2019-02-09T13:27:57.916Z,59.60
2019-02-09T13:30:35.274Z,59.82
2019-02-09T13:33:04.024Z,60.25
2019-02-09T13:35:32.706Z,60.34
2019-02-09T13:38:02.351Z,60.17
2019-02-09T13:40:31.113Z,59.90
2019-02-09T13:43:00.256Z,59.45
2019-02-09T13:45:33.911Z,59.23
2019-02-09T13:48:02.560Z,59.31
2019-02-09T13:50:32.481Z,58.94
2019-02-09T13:53:01.105Z,59.64
2019-02-09T13:55:29.779Z,59.28
2019-02-09T13:57:58.344Z,59.55
2019-02-09T14:00:29.357Z,59.46
2019-02-09T14:05:46.204Z,60.00
2019-02-09T14:08:14.729Z,59.65
2019-02-09T14:10:43.369Z,59.80
2019-02-09T14:13:14.596Z,60.21
2019-02-09T14:15:42.346Z,60.42
2019-02-09T14:18:11.666Z,60.46
2019-02-09T14:20:40.398Z,60.30
2019-02-09T14:23:09.092Z,60.05
2019-02-09T14:25:37.845Z,60.12
2019-02-09T14:28:07.355Z,59.98
2019-02-09T14:30:38.962Z,59.86
2019-02-09T14:33:12.018Z,60.50
2019-02-09T14:35:42.448Z,59.97
2019-02-09T14:38:11.126Z,60.28
2019-02-09T14:40:39.752Z,60.76
2019-02-09T14:43:09.480Z,60.90
2019-02-09T14:45:45.810Z,60.83
2019-02-09T14:48:14.376Z,60.82
2019-02-09T14:50:43.010Z,61.17
2019-02-09T14:53:12.386Z,61.10
2019-02-09T14:55:41.018Z,61.52
2019-02-09T14:58:09.654Z,61.80
2019-02-09T15:00:46.746Z,62.36
2019-02-09T15:03:15.781Z,62.50
2019-02-09T15:05:44.817Z,62.97
2019-02-09T15:08:13.472Z,63.11
2019-02-09T15:10:42.102Z,63.18
2019-02-09T15:13:12.193Z,63.58
2019-02-09T15:15:59.406Z,64.31
2019-02-09T15:18:28.035Z,64.26
2019-02-09T15:21:02.149Z,64.22
2019-02-09T15:23:30.750Z,64.96
2019-02-09T15:25:59.385Z,65.18
2019-02-09T15:28:28.137Z,66.01
2019-02-09T15:30:56.761Z,66.29
2019-02-09T15:33:25.317Z,66.80
2019-02-09T15:35:53.940Z,66.99
2019-02-09T15:38:22.532Z,67.51
2019-02-09T15:40:51.152Z,67.69
2019-02-09T15:43:19.788Z,68.27
2019-02-09T15:45:48.548Z,69.74
2019-02-09T15:48:17.096Z,69.72
2019-02-09T15:50:45.760Z,70.23
2019-02-09T15:53:14.385Z,70.66
2019-02-09T15:55:42.952Z,71.12
2019-02-09T15:58:11.633Z,71.78
2019-02-09T16:00:40.311Z,71.44
2019-02-09T16:03:08.933Z,72.13
2019-02-09T16:05:37.486Z,72.13
2019-02-09T16:08:07.653Z,72.75
2019-02-09T16:10:37.335Z,73.16
2019-02-09T16:13:07.580Z,73.16
2019-02-09T16:15:36.199Z,73.24
2019-02-09T16:18:06.129Z,73.57
2019-02-09T16:20:35.945Z,74.39
2019-02-09T16:23:05.309Z,74.58
2019-02-09T16:25:33.944Z,75.23
2019-02-09T16:28:02.579Z,75.29
2019-02-09T16:30:31.644Z,75.68
2019-02-09T16:33:00.280Z,76.10
2019-02-09T16:35:32.767Z,76.74
2019-02-09T16:38:01.427Z,77.45
2019-02-09T16:40:34.211Z,77.95
2019-02-09T16:43:02.845Z,78.88
2019-02-09T16:45:36.046Z,78.80
2019-02-09T16:48:06.265Z,79.68
2019-02-09T16:50:34.905Z,79.57
2019-02-09T16:53:03.505Z,79.89
2019-02-09T16:55:32.134Z,80.14
2019-02-09T16:58:00.637Z,80.15
2019-02-09T17:00:32.266Z,80.55
2019-02-09T17:03:00.999Z,80.63
2019-02-09T17:05:29.838Z,81.57
2019-02-09T17:07:58.661Z,81.97
2019-02-09T17:10:27.295Z,82.40
2019-02-09T17:12:55.926Z,83.50
2019-02-09T17:15:26.851Z,83.66
2019-02-09T17:17:55.488Z,83.40
2019-02-09T17:20:24.303Z,83.09
2019-02-09T17:22:53.070Z,83.06
2019-02-09T17:25:23.960Z,83.39
2019-02-09T17:27:52.974Z,83.33
2019-02-09T17:30:29.997Z,81.87
2019-02-09T17:32:58.616Z,81.22
2019-02-09T17:35:27.242Z,81.32
2019-02-09T17:37:56.334Z,81.16
2019-02-09T17:40:33.456Z,81.21
2019-02-09T17:43:02.121Z,81.90
2019-02-09T17:45:45.506Z,82.21
2019-02-09T17:48:14.171Z,82.72
2019-02-09T17:50:42.729Z,82.96
2019-02-09T17:53:11.351Z,83.14
2019-02-09T17:55:40.024Z,82.83
2019-02-09T17:58:08.762Z,81.51
2019-02-09T18:00:41.721Z,81.10
2019-02-09T18:03:10.561Z,80.97
2019-02-09T18:05:39.182Z,81.21
2019-02-09T18:08:08.296Z,81.63
2019-02-09T18:10:37.322Z,81.90
2019-02-09T18:13:06.448Z,82.09
2019-02-09T18:15:35.085Z,82.10
2019-02-09T18:18:09.611Z,82.96
2019-02-09T18:20:38.483Z,83.24
2019-02-09T18:23:07.085Z,84.04
2019-02-09T18:25:36.002Z,83.83
2019-02-09T18:28:05.737Z,84.75
2019-02-09T18:30:34.958Z,84.76
2019-02-09T18:33:03.619Z,84.69
2019-02-09T18:35:32.177Z,84.40
2019-02-09T18:38:00.753Z,84.20
2019-02-09T18:40:29.522Z,84.96
2019-02-09T18:42:58.151Z,84.97
2019-02-09T18:45:29.242Z,84.51
2019-02-09T18:47:57.907Z,84.96
2019-02-09T18:50:31.677Z,84.91
2019-02-09T18:53:01.867Z,85.03
2019-02-09T18:55:31.415Z,84.95
2019-02-09T18:58:00.246Z,84.89
2019-02-09T19:00:31.822Z,84.81
2019-02-09T19:03:00.859Z,85.17
2019-02-09T19:05:29.476Z,85.28
2019-02-09T19:07:58.144Z,85.19
2019-02-09T19:10:28.276Z,85.96
2019-02-09T19:12:56.895Z,86.08
2019-02-09T19:15:27.830Z,86.25
2019-02-09T19:17:57.513Z,85.97
2019-02-09T19:20:31.512Z,85.69
2019-02-09T19:23:00.413Z,85.03
2019-02-09T19:25:29.531Z,84.38
2019-02-09T19:27:58.178Z,84.22
2019-02-09T19:30:27.649Z,84.33
2019-02-09T19:32:56.364Z,84.60
2019-02-09T19:35:24.983Z,85.34
2019-02-09T19:37:54.114Z,85.70
2019-02-09T19:40:28.834Z,86.14
2019-02-09T19:42:59.938Z,86.58
2019-02-09T19:45:36.912Z,86.98
2019-02-09T19:48:07.254Z,87.35
2019-02-09T19:50:35.877Z,87.39
2019-02-09T19:53:05.003Z,87.67
2019-02-09T19:55:35.259Z,87.92
2019-02-09T19:58:04.800Z,88.03
2019-02-09T20:00:42.351Z,88.45
2019-02-09T20:03:11.051Z,88.80
2019-02-09T20:05:39.677Z,89.58
2019-02-09T20:08:09.852Z,89.70
2019-02-09T20:10:43.239Z,90.04
2019-02-09T20:13:13.062Z,89.62
2019-02-09T20:15:41.720Z,89.39
2019-02-09T20:18:11.536Z,88.80
2019-02-09T20:20:46.846Z,88.13
2019-02-09T20:23:10.568Z,88.00
2019-02-09T20:25:39.175Z,87.61
2019-02-09T20:28:08.289Z,87.78
2019-02-09T20:30:38.522Z,87.82
2019-02-09T20:33:07.545Z,88.04
2019-02-09T20:35:36.278Z,88.16
2019-02-09T20:38:06.981Z,88.50
2019-02-09T20:40:53.220Z,88.27
2019-02-09T20:43:22.783Z,88.00
2019-02-09T20:45:51.325Z,87.93
2019-02-09T20:48:19.878Z,88.65
2019-02-09T20:50:48.541Z,88.93
2019-02-09T20:53:17.181Z,89.31
2019-02-09T20:55:45.915Z,89.53
2019-02-09T20:58:14.993Z,89.68
2019-02-09T21:00:43.610Z,90.84
2019-02-09T21:03:12.246Z,90.26
2019-02-09T21:05:40.919Z,90.15
2019-02-09T21:08:09.600Z,90.05
2019-02-09T21:10:45.060Z,89.80
2019-02-09T21:13:13.665Z,89.76
2019-02-09T21:15:42.289Z,90.24
2019-02-09T21:18:10.920Z,91.01
2019-02-09T21:20:39.516Z,90.40
2019-02-09T21:23:08.158Z,90.24
2019-02-09T21:25:41.920Z,91.66
2019-02-09T21:28:10.782Z,92.01
2019-02-09T21:30:39.348Z,92.68
2019-02-09T21:33:07.983Z,91.52
2019-02-09T21:35:43.472Z,91.45
2019-02-09T21:38:07.143Z,90.73
2019-02-09T21:40:35.862Z,90.36
2019-02-09T21:43:04.948Z,89.71
2019-02-09T21:45:33.617Z,88.90
2019-02-09T21:48:02.061Z,89.08
2019-02-09T21:50:35.850Z,89.14
2019-02-09T21:53:05.468Z,88.85
2019-02-09T21:55:34.028Z,88.46
2019-02-09T21:58:02.687Z,87.94
2019-02-09T22:00:36.155Z,88.42
2019-02-09T22:03:06.190Z,89.41
2019-02-09T22:05:34.867Z,90.05
2019-02-09T22:08:03.500Z,90.62
2019-02-09T22:10:33.989Z,90.32
2019-02-09T22:13:03.178Z,90.97
2019-02-09T22:15:38.351Z,92.62
2019-02-09T22:18:03.153Z,94.09
2019-02-09T22:20:31.745Z,94.08
2019-02-09T22:23:00.377Z,93.69
2019-02-09T22:25:30.099Z,93.20
2019-02-09T22:27:59.088Z,93.00
2019-02-09T22:30:32.191Z,93.44
2019-02-09T22:33:01.170Z,93.56
2019-02-09T22:35:30.542Z,92.57
2019-02-09T22:37:59.862Z,92.93
2019-02-09T22:40:40.313Z,92.89
2019-02-09T22:43:09.065Z,93.20
2019-02-09T22:45:37.766Z,93.54
2019-02-09T22:48:08.047Z,93.49
2019-02-09T22:50:39.347Z,93.74
2019-02-09T22:53:07.972Z,93.01
2019-02-09T22:55:38.108Z,92.38
2019-02-09T22:58:07.028Z,91.61
2019-02-09T23:00:54.056Z,92.83
2019-02-09T23:03:25.659Z,93.45
2019-02-09T23:06:12.662Z,92.76
2019-02-09T23:08:42.793Z,92.56
2019-02-09T23:11:11.427Z,93.57
2019-02-09T23:13:40.096Z,94.07
2019-02-09T23:16:08.643Z,95.10
2019-02-09T23:18:37.205Z,94.59
2019-02-09T23:21:05.897Z,94.95
2019-02-09T23:23:34.528Z,95.01
2019-02-09T23:26:03.018Z,95.31
2019-02-09T23:28:31.549Z,95.35
2019-02-09T23:31:00.189Z,95.17
2019-02-09T23:33:28.817Z,95.55
2019-02-09T23:35:57.363Z,95.93
2019-02-09T23:38:25.981Z,96.16
2019-02-09T23:40:54.475Z,97.02
2019-02-09T23:43:23.290Z,97.44
2019-02-09T23:45:51.899Z,97.88
2019-02-09T23:48:20.592Z,98.02
2019-02-09T23:50:49.133Z,98.56
2019-02-09T23:53:17.634Z,99.05
2019-02-09T23:55:46.271Z,99.36
2019-02-09T23:58:14.937Z,99.68
